Time;durP1;ratioP1;P1;durP2;ratioP2;P2;SDS_P1;SDS_P2;PMS_P1;PMS_P2;Temp;Humidity;BMP_temperature;BMP_pressure;BME280_temperature;BME280_humidity;BME280_pressure;Samples;Min_cycle;Max_cycle;Signal;HPM_P1;HPM_P2
2022/05/03 00:02:25;;;;;;;11.75;8.77;;;;;;;;;;5006511;28;20506;-75
2022/05/03 00:05:07;;;;;;;14.85;8.90;;;;;;;;;;5009961;28;20190;-76
2022/05/03 00:07:33;;;;;;;15.75;9.77;;;;;;;;;;5008246;28;20435;-77
2022/05/03 00:10:04;;;;;;;11.55;8.15;;;;;;;;;;5006541;28;20034;-75
2022/05/03 00:12:53;;;;;;;15.90;8.38;;;;;;;;;;5008259;28;20356;-76
2022/05/03 00:15:20;;;;;;;14.63;9.27;;;;;;;;;;5005480;28;20046;-75
2022/05/03 00:17:48;;;;;;;12.43;8.65;;;;;;;;;;5006604;28;20054;-77
2022/05/03 00:20:15;;;;;;;11.13;7.88;;;;;;;;;;5010563;28;20503;-77
2022/05/03 00:22:41;;;;;;;13.63;8.65;;;;;;;;;;5008582;28;20034;-75
2022/05/03 00:25:08;;;;;;;11.68;8.07;;;;;;;;;;5006842;28;20041;-76
2022/05/03 00:27:34;;;;;;;10.82;7.72;;;;;;;;;;5007634;28;20460;-76
2022/05/03 00:30:01;;;;;;;9.60;6.82;;;;;;;;;;5010627;28;20030;-75
2022/05/03 00:32:29;;;;;;;11.45;6.88;;;;;;;;;;5008540;28;20084;-76
2022/05/03 00:34:57;;;;;;;9.80;7.78;;;;;;;;;;5008735;28;20029;-76
2022/05/03 00:37:23;;;;;;;12.15;7.50;;;;;;;;;;5005238;28;20042;-75
2022/05/03 00:39:49;;;;;;;11.35;7.32;;;;;;;;;;5004807;28;20060;-76
2022/05/03 00:42:18;;;;;;;12.77;8.20;;;;;;;;;;4998681;28;20052;-76
2022/05/03 00:45:03;;;;;;;12.30;7.88;;;;;;;;;;5007642;28;20132;-76
2022/05/03 00:47:38;;;;;;;12.70;8.18;;;;;;;;;;5005231;28;20049;-76
2022/05/03 00:50:08;;;;;;;14.32;8.82;;;;;;;;;;5002335;28;20041;-76
2022/05/03 00:52:42;;;;;;;12.23;9.02;;;;;;;;;;5006866;28;20171;-76
2022/05/03 00:55:17;;;;;;;14.63;9.65;;;;;;;;;;5002822;28;20092;-76
2022/05/03 00:57:50;;;;;;;16.35;9.82;;;;;;;;;;5007607;28;20034;-75
2022/05/03 01:00:16;;;;;;;19.67;11.98;;;;;;;;;;5004325;28;20037;-75
2022/05/03 01:03:01;;;;;;;19.63;11.80;;;;;;;;;;5008717;28;20111;-75
2022/05/03 01:05:28;;;;;;;19.90;10.87;;;;;;;;;;5007316;28;20058;-76
2022/05/03 01:08:05;;;;;;;15.90;10.07;;;;;;;;;;5003677;28;20301;-76
2022/05/03 01:10:32;;;;;;;17.10;11.90;;;;;;;;;;5001895;28;20136;-75
2022/05/03 01:13:18;;;;;;;17.95;11.30;;;;;;;;;;4999871;28;20098;-75
2022/05/03 01:15:46;;;;;;;16.35;10.63;;;;;;;;;;5009383;28;20454;-77
2022/05/03 01:18:22;;;;;;;15.57;10.05;;;;;;;;;;5003955;28;20045;-75
2022/05/03 01:20:53;;;;;;;16.05;10.55;;;;;;;;;;5000908;28;20041;-74
2022/05/03 01:23:28;;;;;;;15.93;11.02;;;;;;;;;;5002475;28;20034;-75
2022/05/03 01:26:25;;;;;;;16.15;9.95;;;;;;;;;;5008320;28;20042;-75
2022/05/03 01:28:56;;;;;;;17.55;10.15;;;;;;;;;;5010122;28;20026;-75
2022/05/03 01:31:24;;;;;;;16.00;10.18;;;;;;;;;;5008312;28;20048;-76
2022/05/03 01:33:50;;;;;;;16.05;10.32;;;;;;;;;;5004044;28;20380;-76
2022/05/03 01:36:23;;;;;;;15.60;10.23;;;;;;;;;;5009045;28;20492;-75
2022/05/03 01:39:05;;;;;;;14.65;10.63;;;;;;;;;;5005273;28;20060;-77
2022/05/03 01:41:34;;;;;;;17.13;9.52;;;;;;;;;;5008596;28;20761;-75
2022/05/03 01:44:00;;;;;;;18.70;10.38;;;;;;;;;;5007586;28;20045;-75
2022/05/03 01:46:28;;;;;;;17.13;10.32;;;;;;;;;;5002883;28;20048;-75
2022/05/03 01:51:44;;;;;;;12.48;9.48;;;;;;;;;;5006490;28;20117;-75
2022/05/03 01:54:22;;;;;;;13.00;9.13;;;;;;;;;;4998802;28;20073;-75
2022/05/03 01:56:58;;;;;;;13.43;9.63;;;;;;;;;;5005432;28;20061;-75
2022/05/03 01:59:26;;;;;;;12.18;8.65;;;;;;;;;;5001299;28;20113;-75
2022/05/03 02:01:56;;;;;;;12.98;9.27;;;;;;;;;;5007116;28;20056;-74
2022/05/03 02:04:37;;;;;;;14.90;9.45;;;;;;;;;;5010932;28;20037;-75
2022/05/03 02:07:07;;;;;;;12.55;8.02;;;;;;;;;;5009469;28;20041;-75
2022/05/03 02:09:45;;;;;;;12.15;7.50;;;;;;;;;;5004953;28;20037;-76
2022/05/03 02:12:14;;;;;;;11.82;7.75;;;;;;;;;;5000403;28;20100;-75
2022/05/03 02:14:53;;;;;;;10.75;7.75;;;;;;;;;;5008563;28;20045;-76
2022/05/03 02:17:19;;;;;;;12.07;8.15;;;;;;;;;;5006398;28;20034;-77
2022/05/03 02:19:46;;;;;;;11.80;8.13;;;;;;;;;;5007290;28;20038;-74
2022/05/03 02:22:29;;;;;;;11.25;7.68;;;;;;;;;;5012711;28;20022;-76
2022/05/03 02:25:04;;;;;;;11.82;7.80;;;;;;;;;;5021880;28;20121;-76
2022/05/03 02:27:31;;;;;;;;;;;;;;;;;;5020017;28;20097;-75
2022/05/03 02:29:57;;;;;;;10.77;8.93;;;;;;;;;;5017105;28;19952;-76
2022/05/03 02:33:02;;;;;;;11.60;7.22;;;;;;;;;;5008535;28;20034;-75
2022/05/03 02:35:31;;;;;;;11.40;7.47;;;;;;;;;;4926334;29;20122;-77
2022/05/03 02:37:58;;;;;;;12.65;6.80;;;;;;;;;;4924910;29;20134;-75
2022/05/03 02:40:27;;;;;;;10.23;7.32;;;;;;;;;;4965297;28;20053;-75
2022/05/03 02:42:55;;;;;;;11.38;7.28;;;;;;;;;;5004364;28;20036;-76
2022/05/03 02:45:22;;;;;;;10.90;7.88;;;;;;;;;;5002607;28;20044;-75
2022/05/03 02:47:48;;;;;;;10.90;6.85;;;;;;;;;;5012647;28;20022;-75
2022/05/03 02:50:15;;;;;;;9.55;6.93;;;;;;;;;;5006397;28;20030;-75
2022/05/03 02:52:44;;;;;;;10.65;7.43;;;;;;;;;;5008156;28;20117;-75
2022/05/03 02:55:21;;;;;;;8.93;6.10;;;;;;;;;;4997647;28;20381;-75
2022/05/03 02:58:13;;;;;;;8.38;6.30;;;;;;;;;;5007118;28;20052;-75
2022/05/03 03:03:36;;;;;;;10.43;7.30;;;;;;;;;;5008923;28;20049;-75
2022/05/03 03:06:02;;;;;;;10.27;7.10;;;;;;;;;;5011421;28;20040;-75
2022/05/03 03:08:32;;;;;;;10.65;7.35;;;;;;;;;;5008698;28;20026;-76
2022/05/03 03:11:07;;;;;;;10.93;6.82;;;;;;;;;;5010754;28;20030;-75
2022/05/03 03:14:11;;;;;;;8.82;6.50;;;;;;;;;;5013617;28;20041;-75
2022/05/03 03:16:42;;;;;;;11.50;7.32;;;;;;;;;;5009189;28;20099;-74
2022/05/03 03:19:14;;;;;;;10.77;7.53;;;;;;;;;;5011811;28;20108;-75
2022/05/03 03:21:42;;;;;;;9.38;6.70;;;;;;;;;;5005767;28;20443;-75
2022/05/03 03:24:09;;;;;;;9.73;7.22;;;;;;;;;;5011578;28;20058;-75
2022/05/03 03:26:35;;;;;;;12.27;7.85;;;;;;;;;;5009084;28;20103;-74
2022/05/03 03:29:04;;;;;;;9.82;7.15;;;;;;;;;;5010550;28;20107;-75
2022/05/03 03:31:31;;;;;;;10.55;7.03;;;;;;;;;;5005327;28;20077;-76
2022/05/03 03:33:57;;;;;;;13.18;8.20;;;;;;;;;;5011010;28;20068;-75
2022/05/03 03:36:23;;;;;;;9.57;7.10;;;;;;;;;;5008193;28;20026;-74
2022/05/03 03:38:49;;;;;;;11.50;8.02;;;;;;;;;;5014524;28;20030;-75
2022/05/03 03:41:16;;;;;;;12.90;8.00;;;;;;;;;;5008612;28;20033;-75
2022/05/03 03:43:42;;;;;;;9.75;7.30;;;;;;;;;;5012241;28;20412;-74
2022/05/03 03:46:08;;;;;;;10.48;7.55;;;;;;;;;;5009442;28;20100;-74
2022/05/03 03:48:34;;;;;;;11.60;6.60;;;;;;;;;;5010145;28;20037;-76
2022/05/03 03:51:01;;;;;;;10.50;7.15;;;;;;;;;;5006358;28;20109;-75
2022/05/03 03:53:27;;;;;;;10.73;7.03;;;;;;;;;;5005469;28;20022;-75
2022/05/03 03:55:53;;;;;;;10.63;7.45;;;;;;;;;;5007684;28;20026;-75
2022/05/03 03:58:20;;;;;;;11.45;7.45;;;;;;;;;;5005729;28;20099;-76
2022/05/03 04:00:47;;;;;;;8.20;6.18;;;;;;;;;;5010302;28;20100;-77
2022/05/03 04:03:13;;;;;;;10.18;8.15;;;;;;;;;;5001398;28;20026;-75
2022/05/03 04:05:39;;;;;;;10.50;7.30;;;;;;;;;;5005969;28;20026;-76
2022/05/03 04:08:06;;;;;;;10.45;6.85;;;;;;;;;;5005806;28;20061;-74
2022/05/03 04:10:32;;;;;;;10.40;7.00;;;;;;;;;;5006106;28;20052;-75
2022/05/03 04:12:58;;;;;;;10.32;6.85;;;;;;;;;;5008991;28;20026;-75
2022/05/03 04:15:25;;;;;;;9.30;7.13;;;;;;;;;;5009995;28;20121;-76
2022/05/03 04:17:51;;;;;;;10.57;7.32;;;;;;;;;;5011343;28;20523;-75
2022/05/03 04:20:19;;;;;;;10.73;6.80;;;;;;;;;;5001984;28;20096;-74
2022/05/03 04:22:45;;;;;;;9.48;6.82;;;;;;;;;;5010956;28;20092;-75
2022/05/03 04:25:12;;;;;;;11.40;7.72;;;;;;;;;;5009895;28;20056;-75
2022/05/03 04:27:38;;;;;;;10.02;7.05;;;;;;;;;;5012517;28;20467;-75
2022/05/03 04:30:05;;;;;;;10.90;7.63;;;;;;;;;;5009695;28;20471;-76
2022/05/03 04:32:32;;;;;;;11.88;7.30;;;;;;;;;;5008903;28;20022;-74
2022/05/03 04:34:58;;;;;;;11.25;7.00;;;;;;;;;;5008043;28;20033;-75
2022/05/03 04:37:25;;;;;;;10.02;6.93;;;;;;;;;;5012024;28;20030;-76
2022/05/03 04:39:51;;;;;;;9.20;7.22;;;;;;;;;;5007658;28;20053;-76
2022/05/03 04:42:17;;;;;;;11.20;8.00;;;;;;;;;;4993498;28;20030;-74
2022/05/03 04:44:43;;;;;;;10.25;7.45;;;;;;;;;;5009147;28;20303;-75
2022/05/03 04:47:09;;;;;;;10.25;7.88;;;;;;;;;;5003063;28;20045;-75
2022/05/03 04:49:35;;;;;;;10.90;7.65;;;;;;;;;;5020450;28;20035;-74
2022/05/03 04:52:02;;;;;;;11.95;7.88;;;;;;;;;;4993381;28;20022;-75
2022/05/03 04:54:28;;;;;;;10.05;7.40;;;;;;;;;;5007653;28;20341;-75
2022/05/03 04:56:57;;;;;;;12.13;8.05;;;;;;;;;;5004675;28;20523;-75
2022/05/03 04:59:23;;;;;;;10.23;7.32;;;;;;;;;;5010984;28;20030;-75
2022/05/03 05:01:49;;;;;;;10.73;7.75;;;;;;;;;;5009373;28;20534;-75
2022/05/03 05:04:16;;;;;;;14.15;8.45;;;;;;;;;;5009864;28;20046;-75
2022/05/03 05:06:42;;;;;;;12.68;9.02;;;;;;;;;;5003400;28;20446;-75
2022/05/03 05:09:08;;;;;;;11.32;8.02;;;;;;;;;;5006927;28;20105;-75
2022/05/03 05:11:34;;;;;;;13.63;9.00;;;;;;;;;;5005008;28;20026;-76
2022/05/03 05:14:00;;;;;;;10.05;7.10;;;;;;;;;;5009598;28;20116;-75
2022/05/03 05:16:26;;;;;;;14.38;7.65;;;;;;;;;;5010565;28;20093;-75
2022/05/03 05:18:52;;;;;;;13.50;7.50;;;;;;;;;;5009967;28;20022;-75
2022/05/03 05:21:18;;;;;;;10.73;7.65;;;;;;;;;;5004124;28;20042;-75
2022/05/03 05:23:44;;;;;;;12.80;7.90;;;;;;;;;;4999258;28;20164;-76
2022/05/03 05:26:11;;;;;;;12.95;8.55;;;;;;;;;;5007948;28;20026;-76
2022/05/03 05:28:38;;;;;;;12.70;9.40;;;;;;;;;;5008554;28;20706;-75
2022/05/03 05:31:04;;;;;;;16.77;9.65;;;;;;;;;;5003318;28;20034;-76
2022/05/03 05:33:30;;;;;;;17.30;10.50;;;;;;;;;;5009116;28;20030;-74
2022/05/03 05:35:56;;;;;;;14.30;9.77;;;;;;;;;;5007859;28;20022;-75
2022/05/03 05:38:22;;;;;;;14.65;10.00;;;;;;;;;;5001098;28;20072;-75
2022/05/03 05:40:48;;;;;;;16.60;10.60;;;;;;;;;;5007630;28;20022;-75
2022/05/03 05:43:15;;;;;;;14.85;10.32;;;;;;;;;;5008884;28;20046;-75
2022/05/03 05:45:42;;;;;;;17.05;10.82;;;;;;;;;;5003446;28;20029;-75
2022/05/03 05:48:09;;;;;;;18.08;10.95;;;;;;;;;;5007461;28;20059;-75
2022/05/03 05:50:35;;;;;;;17.08;11.02;;;;;;;;;;5007486;28;20030;-75
2022/05/03 05:55:46;;;;;;;17.77;10.30;;;;;;;;;;5013170;28;20061;-75
2022/05/03 05:58:12;;;;;;;17.30;10.10;;;;;;;;;;5010075;28;20091;-75
2022/05/03 06:00:38;;;;;;;17.63;10.82;;;;;;;;;;5007812;28;20098;-75
2022/05/03 06:03:05;;;;;;;18.30;12.65;;;;;;;;;;4997971;28;20057;-75
2022/05/03 06:05:32;;;;;;;20.02;12.90;;;;;;;;;;5007653;28;20022;-75
2022/05/03 06:07:58;;;;;;;21.58;12.55;;;;;;;;;;5008046;28;20030;-75
2022/05/03 06:10:24;;;;;;;20.00;12.75;;;;;;;;;;5000818;28;20069;-75
2022/05/03 06:12:51;;;;;;;21.67;14.10;;;;;;;;;;5004468;28;20498;-76
2022/05/03 06:15:19;;;;;;;20.85;12.93;;;;;;;;;;5002752;28;20034;-76
2022/05/03 06:17:46;;;;;;;25.00;16.77;;;;;;;;;;5010844;28;20118;-75
2022/05/03 06:20:12;;;;;;;21.67;13.63;;;;;;;;;;5002434;28;20121;-75
2022/05/03 06:22:41;;;;;;;20.83;13.50;;;;;;;;;;5009254;28;20563;-75
2022/05/03 06:25:08;;;;;;;25.50;14.20;;;;;;;;;;4999945;28;20026;-75
2022/05/03 06:27:35;;;;;;;21.27;13.93;;;;;;;;;;5014212;28;20065;-74
2022/05/03 06:30:01;;;;;;;22.30;13.95;;;;;;;;;;5018954;28;20030;-76
2022/05/03 06:32:27;;;;;;;24.60;14.20;;;;;;;;;;5019136;28;20034;-75
2022/05/03 06:34:53;;;;;;;22.70;14.38;;;;;;;;;;4996857;28;20018;-76
2022/05/03 06:37:20;;;;;;;19.88;12.25;;;;;;;;;;5006581;28;20038;-75
2022/05/03 06:39:46;;;;;;;25.88;15.02;;;;;;;;;;5010253;28;20037;-75
2022/05/03 06:42:12;;;;;;;21.83;14.00;;;;;;;;;;5005449;28;20472;-76
2022/05/03 06:44:38;;;;;;;25.38;14.15;;;;;;;;;;5001280;28;20037;-75
2022/05/03 06:47:05;;;;;;;27.92;13.60;;;;;;;;;;5008046;28;20038;-75
2022/05/03 06:49:31;;;;;;;24.13;13.65;;;;;;;;;;5008884;28;20495;-76
2022/05/03 06:51:57;;;;;;;23.45;14.15;;;;;;;;;;5006595;28;20172;-76
2022/05/03 06:54:23;;;;;;;22.55;14.38;;;;;;;;;;4994602;28;20033;-76
2022/05/03 06:56:49;;;;;;;22.60;14.70;;;;;;;;;;5005141;28;20049;-77
2022/05/03 06:59:15;;;;;;;24.05;14.35;;;;;;;;;;5006581;28;20115;-76
2022/05/03 07:01:41;;;;;;;22.98;14.38;;;;;;;;;;5002881;28;20026;-77
2022/05/03 07:04:07;;;;;;;22.10;13.70;;;;;;;;;;5001106;28;20129;-75
2022/05/03 07:06:33;;;;;;;22.08;14.80;;;;;;;;;;5001273;28;20431;-76
2022/05/03 07:08:59;;;;;;;27.45;15.27;;;;;;;;;;5010911;28;20022;-77
2022/05/03 07:11:26;;;;;;;19.98;13.82;;;;;;;;;;5007213;28;20090;-77
2022/05/03 07:13:52;;;;;;;27.45;13.27;;;;;;;;;;5009871;28;20078;-76
2022/05/03 07:16:18;;;;;;;21.73;13.70;;;;;;;;;;5005387;28;20038;-76
2022/05/03 07:24:14;;;;;;;19.23;12.23;;;;;;;;;;4997542;28;20108;-77
2022/05/03 07:26:40;;;;;;;18.77;12.68;;;;;;;;;;5011629;28;20158;-77
2022/05/03 07:29:07;;;;;;;19.20;12.65;;;;;;;;;;5011515;28;20018;-77
2022/05/03 07:31:33;;;;;;;19.02;12.40;;;;;;;;;;4998689;28;20057;-77
2022/05/03 07:33:59;;;;;;;21.25;13.00;;;;;;;;;;5008666;28;20448;-76
2022/05/03 07:36:28;;;;;;;17.52;11.65;;;;;;;;;;5019665;28;20038;-76
2022/05/03 07:38:54;;;;;;;18.13;11.18;;;;;;;;;;4999946;28;20026;-78
2022/05/03 07:41:20;;;;;;;19.48;11.82;;;;;;;;;;5006512;28;20061;-78
2022/05/03 07:43:46;;;;;;;17.80;11.40;;;;;;;;;;5002154;28;20170;-76
2022/05/03 07:46:12;;;;;;;17.48;11.30;;;;;;;;;;5006438;28;20079;-76
2022/05/03 07:48:38;;;;;;;16.70;10.57;;;;;;;;;;4997867;28;20050;-76
2022/05/03 07:51:04;;;;;;;14.35;10.07;;;;;;;;;;5017375;28;20022;-75
2022/05/03 07:53:30;;;;;;;14.88;9.60;;;;;;;;;;5016120;28;20104;-76
2022/05/03 07:55:57;;;;;;;17.67;12.18;;;;;;;;;;5019938;28;20026;-75
2022/05/03 07:58:23;;;;;;;17.00;10.90;;;;;;;;;;5004866;28;20101;-76
2022/05/03 08:00:49;;;;;;;14.38;9.82;;;;;;;;;;5012748;28;20068;-77
2022/05/03 08:03:16;;;;;;;13.43;9.95;;;;;;;;;;5008164;28;20531;-77
2022/05/03 08:05:43;;;;;;;15.43;10.55;;;;;;;;;;5004336;28;20460;-76
2022/05/03 08:08:09;;;;;;;15.35;11.07;;;;;;;;;;5009530;28;20037;-77
2022/05/03 08:10:35;;;;;;;16.75;11.45;;;;;;;;;;5008170;28;20112;-77
2022/05/03 08:13:01;;;;;;;15.10;11.25;;;;;;;;;;5006298;28;20114;-78
2022/05/03 08:15:27;;;;;;;17.55;10.82;;;;;;;;;;5011103;28;20665;-77
2022/05/03 08:17:53;;;;;;;16.50;11.00;;;;;;;;;;5011846;28;20029;-77
2022/05/03 08:20:19;;;;;;;16.17;11.27;;;;;;;;;;4998831;28;20031;-76
2022/05/03 08:22:46;;;;;;;14.75;10.00;;;;;;;;;;5005224;28;20462;-76
2022/05/03 08:25:12;;;;;;;14.27;10.45;;;;;;;;;;5005851;28;20042;-75
2022/05/03 08:27:40;;;;;;;16.15;10.52;;;;;;;;;;5011598;28;20037;-76
2022/05/03 08:30:07;;;;;;;16.92;12.88;;;;;;;;;;5009474;28;20077;-77
2022/05/03 08:32:33;;;;;;;16.27;11.07;;;;;;;;;;5005390;28;20058;-77
2022/05/03 08:34:59;;;;;;;12.73;8.93;;;;;;;;;;5021131;28;20037;-77
2022/05/03 08:42:55;;;;;;;15.77;10.73;;;;;;;;;;5013136;28;20185;-76
2022/05/03 08:45:21;;;;;;;13.05;10.35;;;;;;;;;;5011185;28;20076;-77
2022/05/03 08:47:48;;;;;;;13.60;9.48;;;;;;;;;;5009139;28;20033;-77
2022/05/03 08:50:18;;;;;;;13.18;9.63;;;;;;;;;;5011679;28;20836;-77
2022/05/03 08:52:48;;;;;;;13.10;9.30;;;;;;;;;;5013398;28;20624;-76
2022/05/03 08:55:15;;;;;;;10.85;8.30;;;;;;;;;;5006511;28;20073;-76
2022/05/03 08:57:44;;;;;;;11.60;9.63;;;;;;;;;;5005329;28;20026;-77
2022/05/03 09:00:10;;;;;;;11.80;9.13;;;;;;;;;;5000425;28;20082;-78
2022/05/03 09:02:42;;;;;;;13.40;9.35;;;;;;;;;;5007894;28;20065;-76
2022/05/03 09:05:08;;;;;;;11.40;8.75;;;;;;;;;;5010152;28;20367;-78
2022/05/03 09:07:36;;;;;;;11.52;9.32;;;;;;;;;;5007777;28;20420;-76
2022/05/03 09:10:16;;;;;;;12.07;8.25;;;;;;;;;;5006747;28;20104;-77
2022/05/03 09:12:44;;;;;;;10.60;8.77;;;;;;;;;;5001129;28;20034;-77
2022/05/03 09:15:11;;;;;;;11.63;9.10;;;;;;;;;;5009386;28;20085;-76
2022/05/03 09:17:44;;;;;;;11.57;8.32;;;;;;;;;;5004160;28;20026;-78
2022/05/03 09:25:49;;;;;;;;;;;;;;;;;;5004963;28;20048;-78
2022/05/03 09:28:15;;;;;;;12.48;9.27;;;;;;;;;;5008291;28;19924;-76
2022/05/03 09:30:46;;;;;;;11.70;8.40;;;;;;;;;;5006814;28;20083;-77
2022/05/03 09:33:16;;;;;;;11.90;9.60;;;;;;;;;;5005294;28;20019;-76
2022/05/03 09:35:42;;;;;;;10.70;8.63;;;;;;;;;;5008634;28;20046;-76
2022/05/03 09:38:08;;;;;;;18.90;12.15;;;;;;;;;;5004770;28;20347;-77
2022/05/03 09:40:41;;;;;;;13.13;9.60;;;;;;;;;;5010357;28;20585;-76
2022/05/03 09:43:08;;;;;;;13.82;10.80;;;;;;;;;;4996849;28;20034;-76
2022/05/03 09:45:35;;;;;;;13.13;9.55;;;;;;;;;;5003688;28;20032;-77
2022/05/03 09:48:02;;;;;;;12.85;10.70;;;;;;;;;;5010449;28;20022;-76
2022/05/03 09:50:33;;;;;;;16.73;12.68;;;;;;;;;;5008217;28;20030;-76
2022/05/03 09:53:08;;;;;;;15.90;11.88;;;;;;;;;;5006076;28;20112;-76
2022/05/03 09:55:37;;;;;;;14.05;11.00;;;;;;;;;;5010670;28;20119;-76
2022/05/03 09:58:06;;;;;;;12.52;9.85;;;;;;;;;;5009948;28;20049;-75
2022/05/03 10:00:33;;;;;;;13.20;10.07;;;;;;;;;;5007066;28;20507;-76
2022/05/03 10:03:00;;;;;;;14.65;10.98;;;;;;;;;;5001085;28;20034;-76
2022/05/03 10:05:26;;;;;;;12.23;10.13;;;;;;;;;;5002057;28;20026;-76
2022/05/03 10:07:53;;;;;;;16.35;11.40;;;;;;;;;;5007324;28;20368;-75
2022/05/03 10:10:19;;;;;;;13.60;10.43;;;;;;;;;;5010201;28;20041;-76
2022/05/03 10:12:46;;;;;;;11.82;9.93;;;;;;;;;;5008698;28;20045;-75
2022/05/03 10:15:13;;;;;;;13.77;10.15;;;;;;;;;;5008735;28;20052;-76
2022/05/03 10:20:51;;;;;;;12.65;9.23;;;;;;;;;;5009342;28;20191;-77
2022/05/03 10:23:20;;;;;;;13.43;9.52;;;;;;;;;;5009945;28;20033;-77
2022/05/03 10:25:46;;;;;;;10.93;9.60;;;;;;;;;;5009840;28;20556;-76
2022/05/03 10:28:12;;;;;;;15.20;10.57;;;;;;;;;;5007704;28;20375;-76
2022/05/03 10:30:39;;;;;;;12.23;9.85;;;;;;;;;;5003793;28;20022;-76
2022/05/03 10:33:20;;;;;;;11.45;9.23;;;;;;;;;;5002892;28;20026;-75
2022/05/03 10:35:46;;;;;;;14.73;10.10;;;;;;;;;;4993206;28;20106;-76
2022/05/03 10:38:13;;;;;;;14.07;10.30;;;;;;;;;;5007963;28;20022;-77
2022/05/03 10:40:42;;;;;;;14.48;11.50;;;;;;;;;;5010343;28;20029;-76
2022/05/03 10:43:12;;;;;;;17.00;12.98;;;;;;;;;;5007353;28;20041;-75
2022/05/03 10:45:58;;;;;;;13.63;10.80;;;;;;;;;;5003303;28;20365;-77
2022/05/03 10:48:25;;;;;;;15.43;12.05;;;;;;;;;;5007098;28;20065;-77
2022/05/03 10:50:52;;;;;;;17.40;12.48;;;;;;;;;;5009157;28;20381;-76
2022/05/03 10:53:20;;;;;;;17.73;13.48;;;;;;;;;;5000515;28;20080;-76
2022/05/03 10:56:01;;;;;;;16.33;12.50;;;;;;;;;;4997224;28;20105;-76
2022/05/03 10:58:31;;;;;;;16.98;12.98;;;;;;;;;;5004446;28;20026;-75
2022/05/03 11:01:04;;;;;;;16.58;12.02;;;;;;;;;;5005760;28;20018;-75
2022/05/03 11:03:34;;;;;;;14.15;11.35;;;;;;;;;;5006583;28;20399;-76
2022/05/03 11:06:19;;;;;;;14.48;12.40;;;;;;;;;;4996641;28;20022;-76
2022/05/03 11:14:05;;;;;;;11.25;9.20;;;;;;;;;;5005187;28;20107;-76
2022/05/03 11:16:34;;;;;;;12.38;9.40;;;;;;;;;;5008255;28;20026;-76
2022/05/03 11:19:11;;;;;;;10.88;9.32;;;;;;;;;;5009025;28;20041;-75
2022/05/03 11:21:37;;;;;;;13.13;9.60;;;;;;;;;;5007410;28;20026;-74
2022/05/03 11:24:03;;;;;;;13.10;11.02;;;;;;;;;;5010697;28;20044;-76
2022/05/03 11:26:30;;;;;;;13.38;10.57;;;;;;;;;;5012646;28;20145;-76
2022/05/03 11:29:01;;;;;;;11.63;9.55;;;;;;;;;;5009112;28;20498;-77
2022/05/03 11:31:28;;;;;;;10.30;8.70;;;;;;;;;;5011856;28;20381;-76
2022/05/03 11:33:56;;;;;;;10.60;8.70;;;;;;;;;;5013709;28;20037;-76
2022/05/03 11:36:23;;;;;;;11.48;9.23;;;;;;;;;;5009782;28;20042;-77
2022/05/03 11:38:53;;;;;;;11.85;9.57;;;;;;;;;;4995961;28;20106;-76
2022/05/03 11:41:23;;;;;;;10.25;9.15;;;;;;;;;;5002258;28;20049;-76
2022/05/03 11:43:49;;;;;;;12.07;9.63;;;;;;;;;;5011523;28;20165;-76
2022/05/03 11:46:19;;;;;;;10.13;8.45;;;;;;;;;;5013307;28;20516;-77
2022/05/03 11:48:46;;;;;;;10.35;8.48;;;;;;;;;;5004737;28;20057;-76
2022/05/03 11:56:42;;;;;;;10.55;9.15;;;;;;;;;;5012319;28;20068;-76
2022/05/03 11:59:09;;;;;;;12.00;9.82;;;;;;;;;;5008972;28;20314;-77
2022/05/03 12:01:36;;;;;;;10.35;8.57;;;;;;;;;;5007591;28;20037;-76
2022/05/03 12:04:04;;;;;;;12.95;9.90;;;;;;;;;;5012728;28;20026;-76
2022/05/03 12:06:43;;;;;;;11.80;8.77;;;;;;;;;;5010295;28;20113;-75
2022/05/03 12:09:17;;;;;;;11.40;9.00;;;;;;;;;;5009304;28;20169;-75
2022/05/03 12:14:38;;;;;;;9.10;7.17;;;;;;;;;;5005705;28;20054;-75
2022/05/03 12:17:04;;;;;;;9.05;7.43;;;;;;;;;;5001521;28;20356;-77
2022/05/03 12:19:38;;;;;;;9.18;8.20;;;;;;;;;;5009347;28;20049;-76
2022/05/03 12:22:22;;;;;;;7.18;5.78;;;;;;;;;;5010005;28;20097;-74
2022/05/03 12:24:48;;;;;;;7.93;7.05;;;;;;;;;;5005542;28;20108;-74
2022/05/03 12:27:16;;;;;;;8.32;6.32;;;;;;;;;;5002213;28;20029;-75
2022/05/03 12:29:45;;;;;;;6.15;5.55;;;;;;;;;;5003451;28;20033;-76
2022/05/03 12:32:12;;;;;;;5.55;5.05;;;;;;;;;;4999183;28;20161;-75
2022/05/03 12:34:38;;;;;;;5.93;5.10;;;;;;;;;;5003533;28;20096;-75
2022/05/03 12:37:05;;;;;;;5.93;4.75;;;;;;;;;;5000062;28;20459;-74
2022/05/03 12:39:34;;;;;;;5.68;4.03;;;;;;;;;;5004944;28;20461;-75
2022/05/03 12:42:02;;;;;;;5.25;4.75;;;;;;;;;;5000627;28;20120;-75
2022/05/03 12:44:28;;;;;;;5.22;4.72;;;;;;;;;;5011061;28;20040;-75
2022/05/03 12:47:06;;;;;;;4.30;3.90;;;;;;;;;;4999180;28;20050;-75
2022/05/03 12:49:33;;;;;;;4.35;3.95;;;;;;;;;;5003305;28;20053;-75
2022/05/03 12:52:00;;;;;;;5.90;4.13;;;;;;;;;;5006502;28;20434;-74
2022/05/03 12:54:26;;;;;;;4.97;4.30;;;;;;;;;;5005309;28;20034;-75
2022/05/03 12:59:37;;;;;;;4.75;4.03;;;;;;;;;;5004015;28;20044;-75
2022/05/03 13:02:03;;;;;;;5.03;4.20;;;;;;;;;;5009159;28;20072;-75
2022/05/03 13:04:29;;;;;;;5.97;5.13;;;;;;;;;;5008810;28;20108;-74
2022/05/03 13:06:58;;;;;;;5.90;4.80;;;;;;;;;;5007736;28;20133;-76
2022/05/03 13:09:24;;;;;;;6.28;4.70;;;;;;;;;;5006724;28;20064;-75
2022/05/03 13:11:52;;;;;;;5.53;4.93;;;;;;;;;;5005897;28;20028;-76
2022/05/03 13:14:18;;;;;;;5.03;4.50;;;;;;;;;;5002636;28;20046;-75
2022/05/03 13:16:45;;;;;;;4.88;4.20;;;;;;;;;;5002887;28;20057;-75
2022/05/03 13:19:12;;;;;;;4.90;4.20;;;;;;;;;;5002040;28;20066;-75
2022/05/03 13:21:40;;;;;;;5.25;4.30;;;;;;;;;;5006341;28;20463;-75
2022/05/03 13:24:07;;;;;;;6.07;3.55;;;;;;;;;;5008440;28;20158;-76
2022/05/03 13:26:33;;;;;;;4.28;3.88;;;;;;;;;;5007580;28;20037;-75
2022/05/03 13:29:19;;;;;;;5.05;4.57;;;;;;;;;;5014925;28;20041;-77
2022/05/03 13:31:46;;;;;;;5.40;4.60;;;;;;;;;;5002608;28;20041;-75
2022/05/03 13:34:12;;;;;;;4.57;4.18;;;;;;;;;;5008620;28;20030;-76
2022/05/03 13:42:09;;;;;;;4.97;4.28;;;;;;;;;;5000453;28;20100;-75
2022/05/03 13:44:36;;;;;;;7.32;4.32;;;;;;;;;;5001547;28;20089;-76
2022/05/03 13:47:03;;;;;;;5.57;4.45;;;;;;;;;;5004085;28;20022;-75
2022/05/03 13:49:29;;;;;;;10.25;5.10;;;;;;;;;;4999003;28;20064;-75
2022/05/03 13:51:55;;;;;;;5.63;4.85;;;;;;;;;;5005515;28;20133;-75
2022/05/03 13:54:21;;;;;;;7.07;4.93;;;;;;;;;;5009810;28;20045;-75
2022/05/03 13:56:48;;;;;;;5.13;4.63;;;;;;;;;;5008326;28;20033;-76
2022/05/03 13:59:14;;;;;;;5.55;4.55;;;;;;;;;;5005491;28;20030;-76
2022/05/03 14:01:40;;;;;;;9.20;5.55;;;;;;;;;;5009443;28;20037;-76
2022/05/03 14:04:07;;;;;;;6.55;5.38;;;;;;;;;;5008218;28;20038;-76
2022/05/03 14:06:33;;;;;;;6.38;4.85;;;;;;;;;;5012618;28;20033;-76
2022/05/03 14:08:59;;;;;;;6.80;4.95;;;;;;;;;;4996708;28;20121;-75
2022/05/03 14:11:26;;;;;;;5.60;5.00;;;;;;;;;;5007793;28;20030;-76
2022/05/03 14:13:52;;;;;;;5.93;5.07;;;;;;;;;;5009298;28;20037;-74
2022/05/03 14:16:19;;;;;;;7.15;5.78;;;;;;;;;;4998931;28;20038;-79
2022/05/03 14:18:45;;;;;;;6.57;5.45;;;;;;;;;;4999726;28;20022;-76
2022/05/03 14:21:11;;;;;;;6.35;5.32;;;;;;;;;;5008919;28;20066;-76
2022/05/03 14:23:38;;;;;;;8.02;5.75;;;;;;;;;;4997277;28;20029;-74
2022/05/03 14:26:05;;;;;;;6.22;4.80;;;;;;;;;;5003334;28;20025;-74
2022/05/03 14:28:32;;;;;;;6.25;5.35;;;;;;;;;;5005943;28;20389;-73
2022/05/03 14:30:58;;;;;;;6.53;5.05;;;;;;;;;;5001613;28;20062;-73
2022/05/03 14:33:25;;;;;;;5.57;4.97;;;;;;;;;;5008163;28;20029;-73
2022/05/03 14:36:00;;;;;;;6.18;4.68;;;;;;;;;;5009185;28;20023;-72
2022/05/03 14:38:27;;;;;;;5.10;4.60;;;;;;;;;;5009452;28;20037;-76
2022/05/03 14:40:53;;;;;;;5.20;4.35;;;;;;;;;;5003663;28;20018;-76
2022/05/03 14:43:20;;;;;;;4.70;4.10;;;;;;;;;;5000939;28;20565;-75
2022/05/03 14:45:47;;;;;;;3.35;3.05;;;;;;;;;;5003012;28;20033;-76
2022/05/03 14:48:14;;;;;;;4.22;3.70;;;;;;;;;;5003248;28;20018;-74
2022/05/03 14:50:40;;;;;;;4.07;3.50;;;;;;;;;;5008234;28;20116;-74
2022/05/03 14:53:07;;;;;;;3.88;3.30;;;;;;;;;;5003926;28;20404;-76
2022/05/03 14:55:33;;;;;;;3.67;2.85;;;;;;;;;;4997234;28;20851;-74
2022/05/03 15:03:29;;;;;;;3.92;2.97;;;;;;;;;;5005955;28;20045;-74
2022/05/03 15:05:56;;;;;;;3.17;2.70;;;;;;;;;;5002934;28;20034;-75
2022/05/03 15:08:22;;;;;;;3.85;3.00;;;;;;;;;;5006966;28;20503;-76
2022/05/03 15:10:48;;;;;;;3.90;2.75;;;;;;;;;;5009459;28;20040;-74
2022/05/03 15:13:14;;;;;;;4.43;3.33;;;;;;;;;;5009704;28;20095;-74
2022/05/03 15:15:41;;;;;;;3.20;2.90;;;;;;;;;;5007210;28;20093;-74
2022/05/03 15:18:07;;;;;;;3.10;2.80;;;;;;;;;;5001883;28;20472;-77
2022/05/03 15:20:34;;;;;;;3.63;2.80;;;;;;;;;;5006645;28;20026;-74
2022/05/03 15:25:47;;;;;;;3.55;3.00;;;;;;;;;;5006950;28;20091;-75
2022/05/03 15:28:13;;;;;;;3.22;2.75;;;;;;;;;;5007334;28;20026;-75
2022/05/03 15:30:40;;;;;;;3.28;2.97;;;;;;;;;;5006424;28;20037;-76
2022/05/03 15:33:06;;;;;;;4.05;3.15;;;;;;;;;;4998646;28;20148;-74
2022/05/03 15:35:32;;;;;;;4.18;3.28;;;;;;;;;;5007008;28;20076;-75
2022/05/03 15:37:59;;;;;;;3.17;2.88;;;;;;;;;;5008017;28;20038;-74